< < Back
Terminal Aerodrome Forecast


Current Version              Previous Versions:   1  2  3  4  5  6  7  8  9  

Terminal Aerodrome Forecast

751
FTUS42 KJAX 250534
TAFJAX
TAF
KJAX 250534Z 2506/2606 06004KT P6SM SCT060
     FM250900 03004KT P6SM FEW020 BKN060
     FM251500 06012G18KT P6SM VCSH SCT025 BKN035
     FM252100 06013G19KT P6SM SCT035 BKN080
     FM260000 07006KT P6SM FEW025 SCT250=

Latest METAR

441
SAUS80 KWBC 250900
MTRJAX
METAR KJAX 250856Z 01005KT 10SM CLR 23/22 A3007 RMK AO2 SLP182 T02330217
56012


USA.gov is the U.S. government's official web portal to all federal, state and local government web resources and services.